Hurdland, Missouri
Current Conditions -  °F | °C
As of 3:34 PM on Friday 19 Dec 2014 (Local Time) from KIRK Reporting Station
Haze Haze  
Wind Chill: 26°   Ceiling: 900
Heat Index: 32°   Visibility: 5mi
Dew Point: 30°   Wind: 6mph
Humidity: 92%   Direction: 100°E
Pressure: 30.24"   Gusts: NA
Location:  40.15°N, 92.3°W
Report Text: KIRK 192134Z AUTO 10005KT 5SM BR BKN009 OVC050 00/M01 A3024 RMK AO2 T00001011
Loading
Personal Weather Stations






























Interactive Weather Map New forecast layout! Learn more

10-Day Weather Forecast

Advertisements
Track Severe Weather on mobile